Time;durP1;ratioP1;P1;durP2;ratioP2;P2;SDS_P1;SDS_P2;PMS_P1;PMS_P2;Temp;Humidity;BMP_temperature;BMP_pressure;BME280_temperature;BME280_humidity;BME280_pressure;Samples;Min_cycle;Max_cycle;Signal;HPM_P1;HPM_P2
2021/07/06 00:00:40;;;;;;;20.05;11.98;;;;;;;16.49;89.93;100492.25;5023664;28;20506;-81
2021/07/06 00:03:21;;;;;;;20.55;12.00;;;;;;;16.49;89.94;100484.28;5027853;28;20048;-88
2021/07/06 00:06:36;;;;;;;14.68;11.20;;;;;;;16.51;89.70;100490.44;5028428;28;20416;-84
2021/07/06 00:10:03;;;;;;;;;;;;;;;;;;;;;
2021/07/06 00:13:42;;;;;;;14.45;10.02;;;;;;;16.45;89.87;100452.47;4955199;28;20037;-87
2021/07/06 00:20:20;;;;;;;11.23;10.02;;;;;;;16.43;89.58;100449.84;4927703;29;20176;-85
2021/07/06 00:24:50;;;;;;;;;;;;;;;;;;;;;
2021/07/06 00:27:41;;;;;;;;;;;;;;;;;;;;;
2021/07/06 00:31:12;;;;;;;;;;;;;;;;;;;;;
2021/07/06 00:37:58;;;;;;;11.18;8.05;;;;;;;16.37;89.88;100454.34;4965270;28;20423;-84
2021/07/06 00:44:23;;;;;;;8.90;7.03;;;;;;;16.41;89.78;100441.00;4945054;28;20034;-82
2021/07/06 00:54:39;;;;;;;13.07;9.18;;;;;;;16.35;90.67;100428.69;4957382;28;20584;-86
2021/07/06 01:01:24;;;;;;;;;;;;;;;;;;;;;
2021/07/06 01:04:51;;;;;;;13.02;10.25;;;;;;;16.40;90.49;100410.06;4879520;29;20052;-83
2021/07/06 01:21:59;;;;;;;;;;;;;;;;;;;;;
2021/07/06 01:25:27;;;;;;;;;;;;;;;;;;;;;
2021/07/06 01:28:56;;;;;;;;;;;;;;;;;;;;;
2021/07/06 01:39:15;;;;;;;16.88;12.02;;;;;;;16.45;91.59;100335.63;4973389;28;20089;-85
2021/07/06 01:53:21;;;;;;;16.13;12.27;;;;;;;16.46;91.61;100311.69;4860798;29;20227;-82
2021/07/06 01:56:32;;;;;;;19.25;11.90;;;;;;;16.45;91.46;100309.94;4937020;28;20515;-84
2021/07/06 01:59:31;;;;;;;16.77;12.63;;;;;;;16.47;91.70;100310.78;4955498;28;20049;-84
2021/07/06 02:02:10;;;;;;;;;;;;;;;;;;;;;
2021/07/06 02:05:07;;;;;;;17.63;12.32;;;;;;;16.46;91.69;100311.69;5005691;28;20044;-84
2021/07/06 02:08:07;;;;;;;21.77;12.05;;;;;;;16.47;91.89;100283.38;4999868;28;20138;-84
2021/07/06 02:10:52;;;;;;;18.45;11.63;;;;;;;16.45;91.84;100272.75;5013627;28;20132;-83
2021/07/06 02:13:30;;;;;;;16.95;11.52;;;;;;;16.44;91.87;100262.16;5015048;28;20116;-83
2021/07/06 02:16:00;;;;;;;16.88;11.30;;;;;;;16.40;91.89;100258.69;5020955;28;20041;-83
2021/07/06 02:18:27;;;;;;;16.92;10.65;;;;;;;16.40;92.23;100247.19;4999112;28;20045;-83
2021/07/06 02:21:20;;;;;;;12.93;9.85;;;;;;;16.40;91.98;100248.06;5030444;28;20021;-82
2021/07/06 02:24:09;;;;;;;15.90;9.50;;;;;;;16.40;92.17;100239.22;5023955;28;21698;-84
2021/07/06 02:27:47;;;;;;;;;;;;;;;;;;;;;
2021/07/06 03:50:04;;;;;;;;;;;;;;;;;;;;;
2021/07/06 04:10:31;;;;;;;;;;;;;;;;;;;;;
2021/07/06 04:13:38;;;;;;;3.15;2.55;;;;;;;16.59;90.61;100162.72;4697926;30;20168;-83
2021/07/06 04:17:10;;;;;;;4.68;2.90;;;;;;;16.64;90.51;100171.50;4763760;29;20057;-82
2021/07/06 04:20:49;;;;;;;;;;;;;;;;;;;;;
2021/07/06 04:39:02;;;;;;;3.25;2.95;;;;;;;16.77;90.07;100175.66;4811018;29;20270;-90
2021/07/06 04:42:54;;;;;;;;;;;;;;;;;;;;;
2021/07/06 04:49:41;;;;;;;;;;;;;;;16.88;88.99;100174.59;4821931;29;20524;-83
2021/07/06 04:52:46;;;;;;;5.53;2.67;;;;;;;16.92;88.62;100171.00;4830299;29;20393;-86
2021/07/06 04:56:02;;;;;;;6.03;2.38;;;;;;;16.98;88.08;100176.16;4798813;29;20137;-86
2021/07/06 05:03:39;;;;;;;;;;;;;;;;;;;;;
2021/07/06 05:07:00;;;;;;;;;;;;;;;;;;;;;
2021/07/06 05:47:24;;;;;;;;;;;;;;;;;;;;;
2021/07/06 06:04:27;;;;;;;4.47;1.52;;;;;;;17.86;81.91;100168.88;4626535;30;20043;-85
2021/07/06 06:15:34;;;;;;;7.28;2.08;;;;;;;17.93;80.22;100178.47;4927567;29;20043;-83
2021/07/06 06:19:12;;;;;;;5.63;2.20;;;;;;;17.93;79.68;100186.47;4915305;29;20044;-89
2021/07/06 06:21:34;;;;;;;3.10;1.40;;;;;;;17.93;79.75;100185.59;5032585;28;20036;-83
2021/07/06 06:24:20;;;;;;;7.35;1.80;;;;;;;17.89;78.78;100175.91;5050461;28;20433;-86
2021/07/06 06:26:53;;;;;;;6.38;1.58;;;;;;;17.88;77.35;100175.06;5051518;28;20407;-80
2021/07/06 06:29:22;;;;;;;7.63;1.45;;;;;;;17.97;78.06;100185.50;5050546;28;20021;-81
2021/07/06 06:31:55;;;;;;;3.45;1.92;;;;;;;17.95;77.42;100192.66;5051522;28;20024;-85
2021/07/06 06:34:23;;;;;;;2.95;1.80;;;;;;;17.99;76.08;100188.13;5053324;28;20022;-86
2021/07/06 06:36:49;;;;;;;5.78;2.30;;;;;;;18.01;77.09;100183.63;5024237;28;20029;-79
2021/07/06 06:39:34;;;;;;;9.27;1.58;;;;;;;18.11;74.99;100186.94;5041062;28;20032;-80
2021/07/06 06:42:20;;;;;;;8.43;2.15;;;;;;;18.10;74.03;100187.88;5037188;28;20049;-77
2021/07/06 06:44:45;;;;;;;2.97;1.60;;;;;;;18.14;74.69;100194.88;5031576;28;20407;-83
2021/07/06 06:47:11;;;;;;;5.15;1.80;;;;;;;18.21;74.60;100193.78;5040141;28;20025;-81
2021/07/06 06:49:44;;;;;;;7.63;1.80;;;;;;;18.14;74.95;100201.06;5024703;28;20098;-80
2021/07/06 06:52:10;;;;;;;8.60;2.00;;;;;;;18.11;74.39;100198.47;5044890;28;20124;-80
2021/07/06 06:54:37;;;;;;;5.82;2.00;;;;;;;18.05;74.93;100211.91;5046879;28;20041;-80
2021/07/06 06:57:03;;;;;;;12.75;1.90;;;;;;;17.96;74.62;100206.81;5039767;28;20030;-80
2021/07/06 06:59:30;;;;;;;3.95;1.23;;;;;;;17.90;74.46;100209.63;5042714;28;20498;-76
2021/07/06 07:04:39;;;;;;;3.78;1.50;;;;;;;17.81;75.49;100208.91;5038606;28;20102;-79
2021/07/06 07:07:04;;;;;;;4.80;1.60;;;;;;;17.87;75.85;100216.75;5047496;28;20036;-78
2021/07/06 07:09:32;;;;;;;3.17;1.42;;;;;;;18.30;75.62;100213.97;5044227;28;20104;-78
2021/07/06 07:11:58;;;;;;;4.20;1.20;;;;;;;18.55;73.70;100208.88;5041320;28;20103;-78
2021/07/06 07:14:27;;;;;;;9.40;1.13;;;;;;;18.65;71.92;100209.50;5041712;28;20043;-77
2021/07/06 07:17:11;;;;;;;3.97;1.20;;;;;;;18.57;72.22;100214.16;5027180;28;20051;-84
2021/07/06 07:19:45;;;;;;;5.93;1.35;;;;;;;18.47;73.19;100205.56;5041132;28;20032;-82
2021/07/06 07:22:14;;;;;;;3.63;1.40;;;;;;;18.51;72.76;100208.06;5048339;28;20037;-84
2021/07/06 07:24:39;;;;;;;7.18;1.88;;;;;;;18.54;72.95;100212.44;5034900;28;20501;-82
2021/07/06 07:27:06;;;;;;;5.50;1.10;;;;;;;18.53;71.80;100203.59;5023553;28;20029;-83
2021/07/06 07:29:32;;;;;;;4.50;1.48;;;;;;;18.54;72.59;100223.13;5042656;28;20554;-83
2021/07/06 07:31:59;;;;;;;9.10;2.03;;;;;;;18.50;73.24;100214.34;5047463;28;20045;-86
2021/07/06 07:34:25;;;;;;;10.95;1.40;;;;;;;18.48;73.74;100210.84;5035640;28;20045;-80
2021/07/06 07:37:11;;;;;;;4.53;1.30;;;;;;;18.40;73.02;100223.47;5042458;28;20433;-86
2021/07/06 07:39:46;;;;;;;5.88;1.30;;;;;;;18.44;73.13;100221.63;5035397;28;20032;-81
2021/07/06 07:42:20;;;;;;;3.95;1.38;;;;;;;18.77;73.04;100219.81;5038443;28;20060;-82
2021/07/06 07:44:45;;;;;;;3.42;1.40;;;;;;;19.78;68.72;100216.91;5015541;28;20048;-82
2021/07/06 07:47:11;;;;;;;3.25;1.08;;;;;;;20.21;65.87;100223.56;5035458;28;20124;-83
2021/07/06 07:49:39;;;;;;;3.88;1.02;;;;;;;20.01;63.55;100219.75;5041302;28;20492;-82
2021/07/06 07:52:06;;;;;;;5.20;0.88;;;;;;;20.37;61.19;100218.59;5043347;28;20029;-83
2021/07/06 07:54:41;;;;;;;6.18;0.90;;;;;;;20.36;58.88;100216.81;5037759;28;20049;-81
2021/07/06 07:57:10;;;;;;;8.70;1.15;;;;;;;20.57;57.98;100219.72;5040821;28;20541;-82
2021/07/06 07:59:55;;;;;;;4.10;0.93;;;;;;;20.81;57.08;100221.53;5040998;28;20075;-83
2021/07/06 08:02:26;;;;;;;3.40;0.93;;;;;;;21.02;55.96;100219.00;5040329;28;20029;-83
2021/07/06 08:04:52;;;;;;;2.42;1.27;;;;;;;20.92;56.95;100213.13;5045807;28;20029;-82
2021/07/06 08:07:20;;;;;;;4.22;1.65;;;;;;;20.50;57.37;100219.91;5042577;28;20017;-82
2021/07/06 08:09:46;;;;;;;5.93;1.02;;;;;;;20.16;59.91;100223.72;5040376;28;20485;-84
2021/07/06 08:12:17;;;;;;;4.57;0.80;;;;;;;19.91;60.73;100228.13;5021817;28;20045;-81
2021/07/06 08:14:49;;;;;;;3.90;1.20;;;;;;;20.19;59.53;100220.94;5037022;28;20494;-83
2021/07/06 08:17:19;;;;;;;5.43;1.17;;;;;;;20.08;60.68;100236.47;5026120;28;20737;-82
2021/07/06 08:19:49;;;;;;;7.53;1.05;;;;;;;19.87;60.20;100214.88;5051521;28;20092;-84
2021/07/06 08:22:14;;;;;;;5.45;1.02;;;;;;;19.95;61.08;100222.63;5039647;28;20076;-82
2021/07/06 08:24:44;;;;;;;8.00;1.13;;;;;;;19.82;60.39;100231.97;5032240;28;20399;-82
2021/07/06 08:27:12;;;;;;;2.83;1.10;;;;;;;20.34;59.51;100234.72;5030299;28;20031;-82
2021/07/06 08:29:50;;;;;;;8.80;1.35;;;;;;;20.33;55.89;100247.22;5037747;28;20095;-88
2021/07/06 08:32:44;;;;;;;4.35;0.98;;;;;;;20.61;54.87;100248.06;5039687;28;20021;-80
2021/07/06 08:36:14;;;;;;;;;;;;;;;;;;;;;
2021/07/06 08:38:38;;;;;;;5.45;1.00;;;;;;;20.69;54.93;100238.03;5033426;28;20526;-84
2021/07/06 08:41:12;;;;;;;12.80;1.27;;;;;;;20.34;54.84;100250.75;5039143;28;20029;-82
2021/07/06 08:43:37;;;;;;;4.15;1.20;;;;;;;19.90;56.74;100237.94;5020471;28;20040;-82
2021/07/06 08:46:20;;;;;;;7.97;1.15;;;;;;;19.53;57.62;100245.25;5036615;28;20044;-83
2021/07/06 08:49:23;;;;;;;10.32;1.70;;;;;;;19.60;57.21;100264.63;5016759;28;20114;-85
2021/07/06 08:52:05;;;;;;;6.72;1.45;;;;;;;19.71;56.28;100257.16;5038360;28;20120;-85
2021/07/06 08:54:34;;;;;;;10.35;1.23;;;;;;;19.76;56.66;100258.81;5034514;28;20537;-82
2021/07/06 08:57:21;;;;;;;6.07;1.25;;;;;;;19.60;55.33;100269.97;5020978;28;20021;-84
2021/07/06 09:00:33;;;;;;;11.70;1.50;;;;;;;19.53;55.85;100274.63;5038722;28;20075;-85
2021/07/06 09:03:14;;;;;;;6.20;1.17;;;;;;;19.32;56.60;100264.56;4983213;28;20060;-82
2021/07/06 09:06:11;;;;;;;9.02;1.73;;;;;;;19.69;54.29;100284.81;5036903;28;20041;-84
2021/07/06 09:08:51;;;;;;;6.63;1.30;;;;;;;20.13;54.50;100269.25;5035793;28;20389;-83
2021/07/06 09:11:18;;;;;;;7.47;1.10;;;;;;;21.24;51.59;100269.91;5034421;28;20083;-81
2021/07/06 09:14:38;;;;;;;5.53;1.02;;;;;;;21.38;48.39;100264.91;5042293;28;20109;-84
2021/07/06 09:17:38;;;;;;;8.43;1.30;;;;;;;20.61;49.74;100270.31;5037562;28;20690;-82
2021/07/06 09:20:21;;;;;;;10.25;1.52;;;;;;;20.19;52.99;100269.03;5031361;28;20017;-79
2021/07/06 09:23:18;;;;;;;7.40;1.30;;;;;;;19.83;54.50;100279.97;5017264;28;20053;-83
2021/07/06 09:25:44;;;;;;;10.50;1.40;;;;;;;19.70;53.41;100287.44;5036637;28;20041;-81
2021/07/06 09:28:25;;;;;;;11.80;1.30;;;;;;;19.59;53.17;100283.34;5032991;28;20032;-85
2021/07/06 09:30:52;;;;;;;9.77;1.50;;;;;;;19.49;54.43;100294.31;5037755;28;20029;-83
2021/07/06 09:33:28;;;;;;;16.63;1.63;;;;;;;19.44;54.01;100282.88;5031052;28;20483;-81
2021/07/06 09:36:00;;;;;;;6.03;1.25;;;;;;;19.52;54.64;100293.31;5040639;28;20087;-82
2021/07/06 09:38:25;;;;;;;8.23;1.35;;;;;;;19.57;54.19;100290.53;5044207;28;20264;-84
2021/07/06 09:40:56;;;;;;;10.77;2.03;;;;;;;19.61;53.81;100300.19;5027547;28;20544;-84
2021/07/06 09:43:54;;;;;;;5.63;1.20;;;;;;;19.57;53.16;100280.72;5029627;28;20041;-86
2021/07/06 09:49:57;;;;;;;9.93;1.25;;;;;;;19.26;54.61;100302.09;5040378;28;20512;-83
2021/07/06 09:52:23;;;;;;;4.55;1.15;;;;;;;20.11;55.18;100297.78;5016486;28;20068;-84
2021/07/06 09:55:03;;;;;;;9.45;1.30;;;;;;;21.43;54.40;100290.63;5034880;28;20049;-83
2021/07/06 09:57:52;;;;;;;5.38;1.20;;;;;;;22.17;50.35;100293.16;5036304;28;20037;-84
2021/07/06 10:00:37;;;;;;;8.15;1.20;;;;;;;22.29;49.43;100291.78;5036204;28;20040;-84
2021/07/06 10:03:40;;;;;;;10.20;1.42;;;;;;;22.08;48.22;100315.84;5044151;28;20033;-86
2021/07/06 10:06:22;;;;;;;;;;;;;;;;;;;;;
2021/07/06 10:09:24;;;;;;;8.25;1.70;;;;;;;20.85;52.52;100322.13;5050091;28;20075;-83
2021/07/06 10:12:12;;;;;;;5.50;1.38;;;;;;;20.48;51.92;100322.44;5042381;28;20053;-84
2021/07/06 10:15:36;;;;;;;;;;;;;;;;;;;;;
2021/07/06 10:18:41;;;;;;;9.65;1.00;;;;;;;21.43;50.71;100328.13;5052755;28;20039;-87
2021/07/06 10:21:13;;;;;;;12.30;1.83;;;;;;;21.17;50.42;100314.75;5048245;28;20414;-84
2021/07/06 10:24:19;;;;;;;6.40;2.13;;;;;;;20.72;52.48;100331.47;5047212;28;20270;-85
2021/07/06 10:27:21;;;;;;;6.60;1.35;;;;;;;19.59;54.43;100347.38;5043404;28;20624;-84
2021/07/06 10:30:31;;;;;;;8.73;1.65;;;;;;;19.58;55.00;100353.66;5039313;28;20044;-85
2021/07/06 10:33:37;;;;;;;11.68;1.48;;;;;;;19.84;52.86;100332.44;5043028;28;20029;-89
2021/07/06 10:36:35;;;;;;;9.73;1.13;;;;;;;20.07;53.46;100359.38;5041717;28;20021;-85
2021/07/06 10:39:42;;;;;;;13.07;1.60;;;;;;;20.42;52.93;100344.03;5047477;28;20041;-85
2021/07/06 10:42:40;;;;;;;7.35;1.70;;;;;;;20.70;51.21;100354.72;5045253;28;20028;-88
2021/07/06 10:45:35;;;;;;;13.05;1.55;;;;;;;20.77;51.19;100352.69;5037068;28;20090;-85
2021/07/06 10:48:04;;;;;;;7.68;1.10;;;;;;;20.52;52.69;100354.38;4966575;28;20194;-86
2021/07/06 10:50:53;;;;;;;8.60;1.58;;;;;;;20.23;52.45;100362.47;5032954;28;20032;-85
2021/07/06 10:53:29;;;;;;;12.00;1.70;;;;;;;19.82;56.01;100371.66;5035224;28;20036;-81
2021/07/06 10:56:33;;;;;;;10.77;1.38;;;;;;;19.77;54.48;100359.34;5042444;28;20037;-85
2021/07/06 10:59:21;;;;;;;5.70;1.30;;;;;;;19.98;54.26;100371.19;5037546;28;20070;-87
2021/07/06 11:02:33;;;;;;;7.80;1.60;;;;;;;20.27;52.89;100380.16;5041457;28;20028;-85
2021/07/06 11:05:34;;;;;;;10.20;1.38;;;;;;;20.16;54.11;100376.00;5036230;28;20047;-84
2021/07/06 11:08:06;;;;;;;7.45;1.33;;;;;;;19.98;55.59;100366.75;5030148;28;20128;-83
2021/07/06 11:10:35;;;;;;;6.07;1.42;;;;;;;19.70;55.96;100391.53;5029260;28;20143;-82
2021/07/06 11:13:15;;;;;;;4.32;1.08;;;;;;;19.46;55.23;100373.56;5029046;28;20523;-82
2021/07/06 11:16:10;;;;;;;13.98;2.33;;;;;;;19.46;54.34;100374.44;5026863;28;20044;-89
2021/07/06 11:18:47;;;;;;;7.55;1.35;;;;;;;19.61;54.84;100374.94;5021291;28;20120;-84
2021/07/06 11:21:40;;;;;;;7.53;2.08;;;;;;;19.58;55.20;100391.03;5014391;28;20120;-83
2021/07/06 11:24:17;;;;;;;8.98;1.40;;;;;;;19.48;55.31;100388.63;4914768;29;20046;-83
2021/07/06 11:27:01;;;;;;;6.38;1.35;;;;;;;19.37;56.32;100377.34;5017329;28;20050;-86
2021/07/06 11:29:43;;;;;;;6.65;1.45;;;;;;;19.27;57.15;100405.22;5013280;28;20044;-81
2021/07/06 11:32:14;;;;;;;7.00;1.20;;;;;;;19.47;55.44;100391.34;5023075;28;20049;-82
2021/07/06 11:34:49;;;;;;;12.10;1.83;;;;;;;19.46;56.43;100406.44;5021048;28;20354;-84
2021/07/06 11:37:48;;;;;;;;;;;;;;;;;;;;;
2021/07/06 11:40:57;;;;;;;9.10;1.80;;;;;;;19.44;57.05;100410.06;4975699;28;20033;-88
2021/07/06 11:43:31;;;;;;;10.77;1.50;;;;;;;19.51;56.71;100391.19;4952462;28;20053;-86
2021/07/06 11:46:58;;;;;;;9.68;1.75;;;;;;;19.49;57.53;100416.16;5012495;28;20484;-88
2021/07/06 11:49:29;;;;;;;8.70;1.60;;;;;;;19.40;56.77;100405.75;4919523;28;20314;-83
2021/07/06 11:52:08;;;;;;;7.30;1.90;;;;;;;19.34;57.76;100410.34;4919106;29;20095;-83
2021/07/06 11:55:11;;;;;;;5.03;1.23;;;;;;;19.47;56.90;100397.53;4926031;28;20050;-85
2021/07/06 11:58:10;;;;;;;10.52;1.58;;;;;;;19.08;57.29;100418.16;4927267;28;20134;-82
2021/07/06 12:01:13;;;;;;;11.10;1.88;;;;;;;18.85;57.94;100433.75;4947970;28;20511;-83
2021/07/06 12:04:07;;;;;;;5.10;1.20;;;;;;;18.89;58.95;100434.59;5017138;28;20495;-86
2021/07/06 12:06:39;;;;;;;16.63;1.92;;;;;;;18.93;59.53;100430.94;5023556;28;20506;-84
2021/07/06 12:09:51;;;;;;;10.32;1.67;;;;;;;19.24;59.89;100442.66;5022284;28;20055;-84
2021/07/06 12:13:11;;;;;;;15.98;1.67;;;;;;;19.37;58.48;100457.38;5034369;28;20232;-85
2021/07/06 12:15:45;;;;;;;7.97;1.77;;;;;;;19.36;58.29;100431.66;5037301;28;20044;-83
2021/07/06 12:18:45;;;;;;;15.27;1.90;;;;;;;19.24;58.91;100442.66;5034353;28;20410;-81
2021/07/06 12:21:11;;;;;;;10.27;1.80;;;;;;;19.07;60.60;100453.72;5041429;28;20029;-82
2021/07/06 12:24:10;;;;;;;;;;;;;;;;;;;;;
2021/07/06 12:27:07;;;;;;;9.65;1.38;;;;;;;18.72;60.01;100466.97;5040809;28;20084;-84
2021/07/06 12:30:07;;;;;;;8.13;1.60;;;;;;;19.19;58.59;100464.09;5046079;28;20033;-88
2021/07/06 12:33:24;;;;;;;14.00;1.98;;;;;;;20.38;55.30;100482.22;5038751;28;20053;-85
2021/07/06 12:36:27;;;;;;;7.22;2.15;;;;;;;20.85;54.96;100460.31;5023493;28;20037;-84
2021/07/06 12:39:20;;;;;;;14.57;1.98;;;;;;;20.61;55.73;100472.63;5037663;28;20037;-85
2021/07/06 12:42:22;;;;;;;7.30;1.20;;;;;;;21.28;54.46;100463.34;5033758;28;20037;-84
2021/07/06 12:45:19;;;;;;;6.55;1.42;;;;;;;20.78;55.33;100475.69;5036017;28;20060;-85
2021/07/06 12:48:01;;;;;;;10.77;1.48;;;;;;;20.53;55.94;100475.53;5026014;28;20041;-86
2021/07/06 12:51:06;;;;;;;7.55;1.25;;;;;;;21.00;54.78;100493.72;5031616;28;20045;-85
2021/07/06 12:54:03;;;;;;;10.88;1.50;;;;;;;20.90;54.85;100493.13;5030372;28;20544;-87
2021/07/06 12:57:28;;;;;;;13.52;1.48;;;;;;;20.57;56.16;100487.03;5039724;28;20038;-84
2021/07/06 13:03:57;;;;;;;7.75;1.10;;;;;;;20.18;56.46;100512.19;5007635;28;20046;-86
2021/07/06 13:10:11;;;;;;;6.50;1.20;;;;;;;19.78;58.37;100514.16;5003324;28;20633;-85
2021/07/06 13:13:32;;;;;;;2.53;1.10;;;;;;;19.43;59.41;100539.97;5006495;28;20057;-86
2021/07/06 13:29:40;;;;;;;8.05;1.38;;;;;;;19.66;59.59;100533.16;4929955;29;20092;-84
2021/07/06 13:32:27;;;;;;;5.18;0.93;;;;;;;19.31;59.71;100546.47;4917203;29;20181;-84
2021/07/06 13:35:52;;;;;;;8.68;0.90;;;;;;;18.76;63.72;100569.94;4924650;29;20044;-83
2021/07/06 13:38:41;;;;;;;9.38;1.40;;;;;;;17.89;71.72;100610.66;4796567;29;20360;-85
2021/07/06 13:42:07;;;;;;;3.05;1.10;;;;;;;17.32;76.17;100607.16;4797889;29;20043;-82
2021/07/06 13:55:44;;;;;;;9.48;1.17;;;;;;;15.98;79.37;100638.84;4710875;30;20441;-83
2021/07/06 13:58:49;;;;;;;4.63;1.00;;;;;;;15.74;78.09;100631.06;4760083;30;20100;-83
2021/07/06 14:05:35;;;;;;;7.90;1.42;;;;;;;15.54;78.68;100633.88;4815426;29;20129;-84
2021/07/06 14:08:08;;;;;;;4.03;1.58;;;;;;;15.58;79.02;100643.56;4818115;29;20458;-82
2021/07/06 14:11:19;;;;;;;5.85;1.63;;;;;;;15.77;78.48;100629.25;4953875;28;20041;-84
2021/07/06 14:14:31;;;;;;;5.10;1.80;;;;;;;16.31;76.86;100635.88;5015624;28;20056;-85
2021/07/06 14:44:37;;;;;;;4.70;1.45;;;;;;;18.62;67.27;100636.84;4974394;28;20061;-89
2021/07/06 15:26:28;;;;;;;7.32;1.80;;;;;;;18.72;63.27;100685.53;5015291;28;20121;-88
2021/07/06 15:43:17;;;;;;;;;;;;;;;;;;;;;
2021/07/06 15:53:13;;;;;;;9.07;1.80;;;;;;;19.62;60.48;100721.00;4918466;29;20036;-88
2021/07/06 16:16:51;;;;;;;9.93;1.85;;;;;;;19.54;58.87;100745.19;4951638;28;20069;-86
2021/07/06 17:31:33;;;;;;;;;;;;;;;;;;;;;
2021/07/06 18:14:06;;;;;;;;;;;;;;;;;;;;;
2021/07/06 18:35:18;;;;;;;6.28;1.58;;;;;;;17.61;56.86;100914.47;4785710;29;20160;-87
2021/07/06 18:49:22;;;;;;;8.45;1.92;;;;;;;17.41;57.45;100940.41;4746835;30;20050;-88
2021/07/06 18:52:00;;;;;;;;;;;;;;;;;;;;;
2021/07/06 18:59:21;;;;;;;;;;;;;;;;;;;;;
2021/07/06 19:10:04;;;;;;;9.15;2.22;;;;;;;17.24;61.60;100981.38;4754764;30;20143;-89
2021/07/06 19:13:11;;;;;;;14.95;2.38;;;;;;;17.14;62.27;100977.88;4780107;29;20053;-86
2021/07/06 19:34:26;;;;;;;23.48;3.00;;;;;;;16.59;63.94;101007.47;4808238;29;20099;-86
2021/07/06 19:37:29;;;;;;;15.65;2.53;;;;;;;16.56;63.62;101018.13;4848268;29;20064;-85
2021/07/06 19:40:40;;;;;;;10.10;2.38;;;;;;;16.51;63.61;101016.38;4865670;29;20048;-86
2021/07/06 19:44:11;;;;;;;15.07;2.67;;;;;;;16.42;64.54;101026.16;4883300;29;20133;-85
2021/07/06 19:46:49;;;;;;;11.27;2.25;;;;;;;16.35;64.32;101026.19;4925891;29;20060;-88
2021/07/06 19:53:30;;;;;;;17.52;3.10;;;;;;;16.21;65.38;101043.06;4878925;29;20490;-84
2021/07/06 19:56:57;;;;;;;9.88;2.78;;;;;;;16.17;65.81;101037.78;4923065;29;20040;-86
2021/07/06 19:59:34;;;;;;;13.63;2.35;;;;;;;16.14;65.40;101042.19;4928693;29;20048;-86
2021/07/06 20:02:34;;;;;;;12.18;2.83;;;;;;;16.10;66.52;101046.66;4943683;29;20457;-85
2021/07/06 20:09:06;;;;;;;11.43;3.10;;;;;;;15.95;66.74;101052.88;4870135;29;20044;-85
2021/07/06 20:16:00;;;;;;;;;;;;;;;;;;;;;
2021/07/06 20:18:40;;;;;;;13.32;3.67;;;;;;;15.87;66.41;101059.06;4871517;29;20048;-86
2021/07/06 20:22:00;;;;;;;15.43;2.45;;;;;;;15.83;66.62;101066.19;4873068;29;20045;-84
2021/07/06 20:25:28;;;;;;;;;;;;;;;;;;;;;
2021/07/06 20:28:51;;;;;;;;;;;;;;;;;;;;;
2021/07/06 20:32:15;;;;;;;;;;;;;;;;;;;;;
2021/07/06 20:35:54;;;;;;;;;;;;;;;;;;;;;
2021/07/06 20:39:20;;;;;;;;;;;;;;;;;;;;;
2021/07/06 20:46:07;;;;;;;7.07;2.10;;;;;;;15.82;64.95;101086.50;4887586;29;20032;-84
2021/07/06 20:49:28;;;;;;;11.93;2.78;;;;;;;15.84;65.40;101092.72;4884616;29;20514;-86
2021/07/06 20:52:36;;;;;;;;;;;;;;;;;;;;;
2021/07/06 20:55:50;;;;;;;7.93;1.90;;;;;;;15.90;65.49;101099.78;4820122;29;20042;-86
2021/07/06 21:02:52;;;;;;;10.20;2.10;;;;;;;15.94;64.72;101097.97;4808673;29;20050;-85
2021/07/06 21:06:04;;;;;;;11.77;2.75;;;;;;;15.99;64.13;101102.41;4752456;30;20105;-84
2021/07/06 21:09:04;;;;;;;12.25;2.08;;;;;;;16.00;64.57;101109.47;4778040;29;20059;-87
2021/07/06 21:12:25;;;;;;;8.95;2.28;;;;;;;15.89;65.45;101110.41;4796148;29;20491;-87
2021/07/06 21:16:46;;;;;;;;;;;;;;;;;;;;;
2021/07/06 21:18:54;;;;;;;11.45;2.72;;;;;;;15.78;65.12;101121.84;4825094;29;20073;-87
2021/07/06 21:21:48;;;;;;;8.82;2.15;;;;;;;15.82;64.84;101123.66;4948834;28;20038;-84
2021/07/06 21:24:13;;;;;;;;;;;;;;;15.77;65.33;101137.78;4971615;28;20066;-81
2021/07/06 21:26:45;;;;;;;11.85;2.58;;;;;;;15.72;65.31;101140.44;4968715;28;20360;-82
2021/07/06 21:29:11;;;;;;;19.02;3.05;;;;;;;15.67;65.13;101137.78;4971864;28;20072;-83
2021/07/06 21:31:58;;;;;;;8.70;2.55;;;;;;;15.63;65.52;101151.06;5049233;28;20084;-85
2021/07/06 21:34:25;;;;;;;8.55;2.33;;;;;;;15.57;65.62;101154.59;5051030;28;20059;-82
2021/07/06 22:09:48;;;;;;;7.28;1.88;;;;;;;15.23;66.44;101157.16;4957939;28;20134;-83
2021/07/06 22:12:29;;;;;;;10.48;1.65;;;;;;;15.28;66.09;101160.72;4895710;29;20032;-83
2021/07/06 22:15:52;;;;;;;15.43;1.92;;;;;;;15.29;66.36;101157.19;4951408;28;20043;-83
2021/07/06 22:18:43;;;;;;;9.18;1.98;;;;;;;15.33;66.02;101164.25;5031788;28;20503;-84
2021/07/06 22:21:25;;;;;;;;;;;;;;;;;;;;;
2021/07/06 22:27:56;;;;;;;8.65;1.80;;;;;;;15.41;66.00;101156.34;5033508;28;20455;-83
2021/07/06 22:30:28;;;;;;;7.85;2.05;;;;;;;15.41;65.63;101151.03;5034167;28;20110;-83
2021/07/06 22:37:03;;;;;;;9.88;1.90;;;;;;;15.42;66.75;101158.06;4942963;29;20036;-86
2021/07/06 22:40:30;;;;;;;;;;;;;;;;;;;;;
2021/07/06 22:42:56;;;;;;;8.25;1.80;;;;;;;15.34;66.85;101150.13;5026643;28;20063;-85
2021/07/06 22:46:02;;;;;;;6.60;2.67;;;;;;;15.37;66.94;101151.91;5038106;28;20530;-83
2021/07/06 22:49:10;;;;;;;7.43;1.85;;;;;;;15.40;66.71;101165.16;5027338;28;20071;-84
2021/07/06 22:52:26;;;;;;;;;;;;;;;;;;;;;
2021/07/06 22:55:24;;;;;;;6.60;2.58;;;;;;;15.45;66.67;101155.47;5030014;28;20033;-82
2021/07/06 22:58:16;;;;;;;6.65;1.85;;;;;;;15.52;66.09;101165.19;5034622;28;20029;-82
2021/07/06 23:00:45;;;;;;;7.82;2.15;;;;;;;15.54;66.14;101159.88;5024978;28;20044;-84
2021/07/06 23:03:38;;;;;;;8.32;1.70;;;;;;;15.55;66.35;101160.78;5030512;28;20491;-85
2021/07/06 23:06:09;;;;;;;9.30;1.90;;;;;;;15.57;66.47;101172.25;5033290;28;20045;-82
2021/07/06 23:09:18;;;;;;;8.55;2.10;;;;;;;15.55;66.66;101174.91;5030878;28;20541;-84
2021/07/06 23:12:04;;;;;;;5.88;1.80;;;;;;;15.60;66.23;101174.91;5029599;28;20503;-84
2021/07/06 23:18:23;;;;;;;6.32;1.70;;;;;;;15.66;66.49;101177.56;5029226;28;20052;-84
2021/07/06 23:21:22;;;;;;;9.15;2.10;;;;;;;15.66;66.24;101173.16;5026069;28;20044;-84
2021/07/06 23:24:31;;;;;;;7.40;1.88;;;;;;;15.66;66.63;101177.56;5023777;28;20041;-84
2021/07/06 23:27:35;;;;;;;6.95;2.13;;;;;;;15.66;66.22;101177.56;5017415;28;20037;-84
2021/07/06 23:30:48;;;;;;;9.30;2.00;;;;;;;15.69;66.24;101177.56;5020506;28;20045;-84
2021/07/06 23:33:52;;;;;;;5.78;1.73;;;;;;;15.70;66.49;101174.03;5029017;28;20036;-83
2021/07/06 23:36:42;;;;;;;4.25;1.45;;;;;;;15.70;66.31;101184.66;5031762;28;20168;-83
2021/07/06 23:39:59;;;;;;;13.98;1.88;;;;;;;15.74;66.06;101182.91;5030733;28;20584;-83
2021/07/06 23:42:37;;;;;;;6.57;1.90;;;;;;;15.78;65.46;101185.53;5024454;28;20038;-84
2021/07/06 23:49:34;;;;;;;6.18;1.67;;;;;;;15.74;66.65;101183.78;4991271;28;20145;-84
2021/07/06 23:52:19;;;;;;;12.90;2.10;;;;;;;15.68;66.79;101186.41;4996345;28;20063;-82
2021/07/06 23:55:01;;;;;;;4.90;1.60;;;;;;;15.58;66.93;101187.28;5025741;28;20045;-84
2021/07/06 23:57:33;;;;;;;6.45;1.90;;;;;;;15.47;67.34;101190.81;5013595;28;20092;-83
